Time;durP1;ratioP1;P1;durP2;ratioP2;P2;SDS_P1;SDS_P2;PMS_P1;PMS_P2;Temp;Humidity;BMP_temperature;BMP_pressure;BME280_temperature;BME280_humidity;BME280_pressure;Samples;Min_cycle;Max_cycle;Signal;HPM_P1;HPM_P2
2021/12/15 00:00:27;;;;;;;35.23;18.67;;;8.90;99.90;;;;;;5068139;28;20218;-40
2021/12/15 00:02:54;;;;;;;37.27;19.20;;;8.90;99.90;;;;;;5063112;28;20214;-40
2021/12/15 00:05:23;;;;;;;36.50;20.53;;;8.90;99.90;;;;;;5055516;28;20215;-41
2021/12/15 00:07:54;;;;;;;37.03;19.00;;;9.00;99.90;;;;;;5077953;28;20267;-45
2021/12/15 00:10:22;;;;;;;32.77;18.50;;;9.00;99.90;;;;;;5061970;28;20226;-40
2021/12/15 00:12:50;;;;;;;35.03;18.60;;;9.00;99.90;;;;;;5077617;28;20194;-40
2021/12/15 00:15:18;;;;;;;36.43;18.80;;;9.00;99.90;;;;;;5071364;28;20199;-44
2021/12/15 00:17:45;;;;;;;38.23;20.20;;;9.00;99.90;;;;;;5073462;28;20917;-40
2021/12/15 00:20:17;;;;;;;38.33;20.40;;;9.00;99.90;;;;;;5061209;28;20592;-45
2021/12/15 00:22:44;;;;;;;35.57;18.10;;;9.00;99.90;;;;;;5061083;28;20223;-42
2021/12/15 00:25:14;;;;;;;34.97;19.17;;;9.00;99.90;;;;;;5063754;28;20210;-46
2021/12/15 00:27:41;;;;;;;34.77;19.33;;;9.00;99.90;;;;;;5063137;28;20444;-40
2021/12/15 00:30:10;;;;;;;36.50;18.97;;;9.00;99.90;;;;;;5064664;28;20221;-42
2021/12/15 00:32:38;;;;;;;38.77;19.43;;;9.00;99.90;;;;;;5058630;28;20195;-40
2021/12/15 00:35:07;;;;;;;36.23;18.77;;;9.00;99.90;;;;;;5061355;28;20205;-43
2021/12/15 00:37:34;;;;;;;37.03;19.47;;;9.10;99.90;;;;;;5078865;28;20898;-43
2021/12/15 00:40:01;;;;;;;37.63;18.57;;;9.10;99.90;;;;;;5083368;28;20224;-43
2021/12/15 00:42:29;;;;;;;37.67;20.10;;;9.10;99.90;;;;;;5066180;28;20206;-42
2021/12/15 00:44:56;;;;;;;39.67;19.73;;;9.10;99.90;;;;;;5069632;28;20217;-44
2021/12/15 00:47:23;;;;;;;38.83;19.00;;;9.10;99.90;;;;;;5065681;28;20221;-41
2021/12/15 00:49:51;;;;;;;34.80;18.73;;;9.10;99.90;;;;;;5074719;28;20216;-41
2021/12/15 00:52:18;;;;;;;33.30;18.80;;;9.10;99.90;;;;;;5066121;28;20277;-38
2021/12/15 00:54:45;;;;;;;32.23;18.10;;;9.10;99.90;;;;;;5079114;28;20851;-39
2021/12/15 00:57:11;;;;;;;32.63;19.57;;;9.10;99.90;;;;;;5082944;28;20205;-40
2021/12/15 00:59:39;;;;;;;35.13;17.77;;;9.10;99.90;;;;;;5058449;28;20986;-41
2021/12/15 01:02:07;;;;;;;37.63;19.30;;;9.10;99.90;;;;;;5063990;28;20364;-40
2021/12/15 01:04:34;;;;;;;37.03;19.43;;;9.10;99.90;;;;;;5058264;28;20203;-40
2021/12/15 01:07:04;;;;;;;35.03;19.03;;;9.10;99.90;;;;;;5066693;28;20232;-43
2021/12/15 01:09:38;;;;;;;33.70;18.03;;;9.10;99.90;;;;;;5076967;28;20222;-38
2021/12/15 01:12:16;;;;;;;34.33;19.00;;;9.10;99.90;;;;;;5073390;28;20209;-39
2021/12/15 01:20:37;;;;;;;31.90;17.57;;;9.10;99.90;;;;;;5071211;28;20995;-43
2021/12/15 01:23:08;;;;;;;32.10;18.27;;;9.10;99.90;;;;;;5070311;28;20211;-43
2021/12/15 01:25:38;;;;;;;33.33;18.60;;;9.10;99.90;;;;;;5058984;28;20214;-41
2021/12/15 01:28:05;;;;;;;34.67;19.10;;;9.10;99.90;;;;;;5063197;28;20689;-40
2021/12/15 01:30:36;;;;;;;29.77;17.93;;;9.10;99.90;;;;;;5062179;28;20717;-39
2021/12/15 01:33:04;;;;;;;36.17;18.70;;;9.10;99.90;;;;;;5064848;28;20206;-44
2021/12/15 01:35:35;;;;;;;29.97;18.27;;;9.10;99.90;;;;;;5059689;28;20210;-39
2021/12/15 01:38:02;;;;;;;32.37;18.30;;;9.10;99.90;;;;;;5065913;28;20206;-41
2021/12/15 01:40:34;;;;;;;34.83;19.03;;;9.10;99.90;;;;;;5075033;28;20229;-40
2021/12/15 01:43:04;;;;;;;33.63;19.07;;;9.10;99.90;;;;;;5071063;28;20202;-39
2021/12/15 01:48:17;;;;;;;33.67;18.00;;;9.10;99.90;;;;;;5077832;28;20210;-41
2021/12/15 01:50:45;;;;;;;32.00;16.97;;;9.10;99.90;;;;;;5065211;28;20211;-40
2021/12/15 01:53:12;;;;;;;31.87;18.37;;;9.10;99.90;;;;;;5066575;28;20210;-39
2021/12/15 01:55:39;;;;;;;34.07;18.93;;;9.10;99.90;;;;;;5081381;28;20205;-40
2021/12/15 01:58:06;;;;;;;33.60;18.07;;;9.10;99.90;;;;;;5086029;28;20284;-39
2021/12/15 02:00:40;;;;;;;31.93;17.70;;;9.10;99.90;;;;;;5069287;28;20248;-40
2021/12/15 02:03:07;;;;;;;33.13;19.10;;;9.10;99.90;;;;;;5074507;28;20198;-41
2021/12/15 02:05:36;;;;;;;33.30;19.03;;;9.10;99.90;;;;;;5061543;28;20316;-43
2021/12/15 02:08:05;;;;;;;33.07;18.90;;;9.10;99.90;;;;;;5066321;28;20562;-42
2021/12/15 02:10:35;;;;;;;33.20;18.77;;;9.10;99.90;;;;;;5066618;28;20218;-40
2021/12/15 02:13:05;;;;;;;33.80;18.20;;;9.20;99.90;;;;;;5061572;28;20240;-39
2021/12/15 02:15:37;;;;;;;32.33;18.47;;;9.20;99.90;;;;;;5063077;28;20217;-40
2021/12/15 02:18:05;;;;;;;32.53;18.17;;;9.20;99.90;;;;;;5066056;28;20269;-40
2021/12/15 02:20:37;;;;;;;34.30;18.70;;;9.20;99.90;;;;;;5072658;28;20233;-39
2021/12/15 02:23:05;;;;;;;29.77;17.97;;;9.20;99.90;;;;;;5084411;28;20202;-42
2021/12/15 02:25:32;;;;;;;31.70;17.20;;;9.20;99.90;;;;;;5071243;28;20271;-39
2021/12/15 02:28:00;;;;;;;37.87;18.30;;;9.20;99.90;;;;;;5084528;28;20210;-43
2021/12/15 02:30:44;;;;;;;29.50;16.20;;;9.20;99.90;;;;;;5072891;28;20226;-39
2021/12/15 02:33:37;;;;;;;33.20;19.47;;;9.20;99.90;;;;;;5076431;28;20202;-41
2021/12/15 02:38:47;;;;;;;33.17;17.70;;;9.20;99.90;;;;;;5078983;28;20198;-43
2021/12/15 02:41:20;;;;;;;34.97;18.80;;;9.20;99.90;;;;;;5064642;28;20211;-39
2021/12/15 02:43:48;;;;;;;33.40;17.87;;;9.20;99.90;;;;;;5069639;28;20202;-39
2021/12/15 02:46:15;;;;;;;34.90;18.50;;;9.30;99.90;;;;;;5056611;28;20226;-41
2021/12/15 02:48:42;;;;;;;33.83;18.47;;;9.30;99.90;;;;;;5069935;28;20205;-39
2021/12/15 02:51:10;;;;;;;37.27;19.83;;;9.30;99.90;;;;;;5065999;28;20226;-39
2021/12/15 02:53:37;;;;;;;36.67;18.80;;;9.30;99.90;;;;;;5061836;28;20240;-39
2021/12/15 02:56:04;;;;;;;32.97;18.87;;;9.30;99.90;;;;;;5063762;28;20213;-40
2021/12/15 02:58:34;;;;;;;38.57;19.93;;;9.30;99.90;;;;;;5062329;28;20198;-40
2021/12/15 03:01:09;;;;;;;37.50;19.20;;;9.30;99.90;;;;;;5060032;28;20698;-40
2021/12/15 03:06:45;;;;;;;33.53;18.60;;;9.40;99.90;;;;;;5037888;28;20223;-44
2021/12/15 03:15:15;;;;;;;35.60;18.83;;;9.40;99.90;;;;;;5042667;28;20658;-42
2021/12/15 03:17:30;;;;;;;40.60;20.10;;;9.40;99.90;;;;;;5058812;28;20696;-40
2021/12/15 03:19:57;;;;;;;37.23;20.57;;;9.40;99.90;;;;;;5074375;28;20221;-40
2021/12/15 03:22:25;;;;;;;34.93;19.50;;;9.40;99.90;;;;;;5063251;28;20202;-40
2021/12/15 03:24:51;;;;;;;36.13;19.37;;;9.40;99.90;;;;;;5063845;28;20873;-40
2021/12/15 03:27:24;;;;;;;33.97;17.60;;;9.40;99.90;;;;;;5063095;28;20714;-40
2021/12/15 03:35:33;;;;;;;35.60;19.30;;;9.50;99.90;;;;;;5066062;28;20686;-41
2021/12/15 03:38:02;;;;;;;39.90;19.40;;;9.50;99.90;;;;;;5064691;28;20202;-42
2021/12/15 03:40:38;;;;;;;37.43;18.93;;;9.50;99.90;;;;;;5060848;28;20292;-40
2021/12/15 03:43:07;;;;;;;33.30;18.40;;;9.50;99.90;;;;;;5070572;28;20202;-38
2021/12/15 03:45:37;;;;;;;37.33;18.57;;;9.50;99.90;;;;;;5060828;28;20208;-40
2021/12/15 03:48:08;;;;;;;37.93;20.53;;;9.50;99.90;;;;;;5067302;28;20246;-39
2021/12/15 03:50:36;;;;;;;37.67;19.40;;;9.50;99.90;;;;;;5075207;28;20217;-39
2021/12/15 03:53:05;;;;;;;39.87;19.37;;;9.60;99.90;;;;;;5084149;28;20673;-39
2021/12/15 03:55:35;;;;;;;38.63;19.27;;;9.50;99.90;;;;;;5060929;28;20226;-39
2021/12/15 03:58:06;;;;;;;37.97;20.57;;;9.60;99.90;;;;;;5066063;28;20213;-42
2021/12/15 04:00:32;;;;;;;40.07;17.97;;;9.60;99.90;;;;;;5080035;28;20214;-41
2021/12/15 04:02:59;;;;;;;38.60;19.57;;;9.60;99.90;;;;;;5073966;28;20217;-42
2021/12/15 04:05:27;;;;;;;40.13;18.80;;;9.60;99.90;;;;;;5070837;28;20202;-40
2021/12/15 04:07:54;;;;;;;40.43;17.60;;;9.60;99.90;;;;;;5062903;28;20225;-41
2021/12/15 04:10:25;;;;;;;38.17;18.20;;;9.60;99.90;;;;;;5063015;28;20627;-40
2021/12/15 04:12:52;;;;;;;34.57;17.77;;;9.60;99.90;;;;;;5065932;28;20198;-41
2021/12/15 04:15:26;;;;;;;36.70;18.17;;;9.60;99.90;;;;;;5082533;28;20194;-41
2021/12/15 04:17:54;;;;;;;45.40;19.57;;;9.60;99.90;;;;;;5077177;28;20247;-39
2021/12/15 04:20:24;;;;;;;47.83;20.33;;;9.60;99.90;;;;;;5061462;28;20223;-41
2021/12/15 04:22:52;;;;;;;51.37;21.97;;;9.60;99.90;;;;;;5073279;28;20182;-41
2021/12/15 04:25:24;;;;;;;46.03;20.20;;;9.70;99.90;;;;;;5062884;28;20199;-39
2021/12/15 04:27:57;;;;;;;47.13;19.67;;;9.70;99.90;;;;;;5065956;28;20833;-39
2021/12/15 04:30:25;;;;;;;42.40;20.13;;;9.60;99.90;;;;;;5081259;28;20308;-39
2021/12/15 04:32:53;;;;;;;46.53;21.77;;;9.60;99.90;;;;;;5082366;28;20183;-39
2021/12/15 04:35:20;;;;;;;44.47;20.87;;;9.60;99.90;;;;;;5066900;28;20217;-41
2021/12/15 04:37:48;;;;;;;46.90;21.13;;;9.60;99.90;;;;;;5066326;28;20191;-41
2021/12/15 04:40:17;;;;;;;41.77;19.50;;;9.60;99.90;;;;;;5063421;28;20214;-40
2021/12/15 04:42:45;;;;;;;47.30;20.97;;;9.70;99.90;;;;;;5057965;28;20198;-39
2021/12/15 04:45:14;;;;;;;46.17;20.17;;;9.70;99.90;;;;;;5065797;28;20213;-39
2021/12/15 04:47:41;;;;;;;44.33;19.90;;;9.70;99.90;;;;;;5065550;28;20214;-40
2021/12/15 04:50:10;;;;;;;46.00;20.60;;;9.70;99.90;;;;;;5066359;28;20237;-39
2021/12/15 04:52:39;;;;;;;50.67;21.47;;;9.70;99.90;;;;;;5064930;28;20187;-40
2021/12/15 04:55:08;;;;;;;43.87;20.27;;;9.70;99.90;;;;;;5065382;28;20202;-39
2021/12/15 04:57:35;;;;;;;47.27;21.00;;;9.70;99.90;;;;;;5059292;28;20196;-40
2021/12/15 05:00:06;;;;;;;66.43;22.93;;;9.70;99.90;;;;;;5070327;28;20217;-41
2021/12/15 05:02:33;;;;;;;45.60;21.50;;;9.70;99.90;;;;;;5062247;28;20197;-39
2021/12/15 05:05:00;;;;;;;53.43;20.27;;;9.70;99.90;;;;;;5068610;28;20221;-41
2021/12/15 05:07:27;;;;;;;47.13;21.23;;;9.70;99.90;;;;;;5056769;28;20225;-42
2021/12/15 05:09:54;;;;;;;50.60;22.63;;;9.70;99.90;;;;;;5067278;28;20214;-39
2021/12/15 05:12:23;;;;;;;46.27;20.80;;;9.70;99.90;;;;;;5072290;28;20224;-40
2021/12/15 05:14:51;;;;;;;50.67;20.87;;;9.70;99.90;;;;;;5065205;28;20215;-43
2021/12/15 05:17:19;;;;;;;52.27;20.73;;;9.70;99.90;;;;;;5065949;28;20659;-40
2021/12/15 05:19:47;;;;;;;50.53;21.43;;;9.70;99.90;;;;;;5063408;28;20220;-40
2021/12/15 05:22:14;;;;;;;52.97;22.27;;;9.70;99.90;;;;;;5061610;28;20221;-40
2021/12/15 05:24:42;;;;;;;49.00;20.97;;;9.70;99.90;;;;;;5065475;28;20212;-41
2021/12/15 05:27:12;;;;;;;48.03;20.03;;;9.70;99.90;;;;;;5063958;28;20218;-40
2021/12/15 05:29:40;;;;;;;57.80;22.20;;;9.70;99.90;;;;;;5063342;28;20220;-41
2021/12/15 05:32:08;;;;;;;49.17;19.03;;;9.70;99.90;;;;;;5065153;28;20210;-41
2021/12/15 05:34:37;;;;;;;60.47;24.47;;;9.80;99.90;;;;;;5064968;28;20965;-40
2021/12/15 05:37:04;;;;;;;50.77;20.43;;;9.80;99.90;;;;;;5058016;28;20202;-40
2021/12/15 05:39:32;;;;;;;48.37;20.83;;;9.80;99.90;;;;;;5073213;28;20629;-40
2021/12/15 05:41:59;;;;;;;53.53;20.93;;;9.80;99.90;;;;;;5062848;28;20671;-41
2021/12/15 05:44:26;;;;;;;61.93;22.73;;;9.80;99.90;;;;;;5059400;28;20195;-44
2021/12/15 05:46:56;;;;;;;59.83;21.20;;;9.80;99.90;;;;;;5065578;28;20217;-40
2021/12/15 05:49:22;;;;;;;63.07;23.00;;;9.80;99.90;;;;;;5065867;28;20229;-40
2021/12/15 05:51:50;;;;;;;65.50;22.63;;;9.80;99.90;;;;;;5074257;28;20201;-41
2021/12/15 05:54:18;;;;;;;62.67;24.73;;;9.80;99.90;;;;;;5055269;28;20206;-40
2021/12/15 05:56:45;;;;;;;67.37;25.03;;;9.80;99.90;;;;;;5065613;28;20324;-42
2021/12/15 05:59:11;;;;;;;69.27;24.77;;;9.80;99.90;;;;;;5082070;28;20229;-41
2021/12/15 06:01:38;;;;;;;63.07;23.30;;;9.80;99.90;;;;;;5070547;28;21689;-45
2021/12/15 06:04:06;;;;;;;53.50;21.63;;;9.90;99.90;;;;;;5063273;28;20206;-42
2021/12/15 06:06:33;;;;;;;65.93;24.57;;;9.90;99.90;;;;;;5074324;28;20213;-39
2021/12/15 06:09:03;;;;;;;67.07;25.37;;;9.90;99.90;;;;;;5050258;28;20198;-43
2021/12/15 06:11:30;;;;;;;55.77;22.33;;;9.90;99.90;;;;;;5068705;28;20201;-40
2021/12/15 06:13:57;;;;;;;56.73;22.87;;;9.90;99.90;;;;;;5065773;28;20190;-44
2021/12/15 06:16:24;;;;;;;57.50;23.67;;;9.90;99.90;;;;;;5075936;28;20191;-40
2021/12/15 06:18:53;;;;;;;68.93;26.00;;;9.90;99.90;;;;;;5049024;28;20206;-41
2021/12/15 06:21:22;;;;;;;65.73;23.37;;;9.90;99.90;;;;;;5070351;28;20198;-43
2021/12/15 06:23:49;;;;;;;60.03;23.23;;;9.90;99.90;;;;;;5053563;28;20907;-40
2021/12/15 06:26:18;;;;;;;62.70;24.73;;;9.90;99.90;;;;;;5066679;28;20210;-42
2021/12/15 06:28:46;;;;;;;61.00;23.67;;;9.90;99.90;;;;;;5060787;28;20195;-42
2021/12/15 06:31:15;;;;;;;62.53;23.93;;;10.00;99.90;;;;;;5062506;28;20573;-41
2021/12/15 06:33:43;;;;;;;69.60;27.37;;;10.00;99.90;;;;;;5063916;28;20655;-42
2021/12/15 06:36:13;;;;;;;54.17;23.50;;;10.00;99.90;;;;;;5076405;28;20846;-42
2021/12/15 06:38:43;;;;;;;64.23;25.30;;;10.00;99.90;;;;;;5064978;28;20331;-41
2021/12/15 06:41:12;;;;;;;67.63;25.67;;;10.00;99.90;;;;;;5065891;28;20718;-41
2021/12/15 06:43:43;;;;;;;63.20;24.73;;;10.00;99.90;;;;;;5066422;28;20551;-41
2021/12/15 06:46:29;;;;;;;73.13;25.80;;;10.00;99.90;;;;;;5067049;28;20206;-41
2021/12/15 06:57:31;;;;;;;64.90;25.50;;;10.10;99.90;;;;;;5075514;28;20193;-40
2021/12/15 06:59:59;;;;;;;58.67;22.70;;;10.10;99.90;;;;;;5070784;28;21028;-40
2021/12/15 07:02:26;;;;;;;59.23;24.30;;;10.10;99.90;;;;;;5061205;28;20291;-40
2021/12/15 07:04:52;;;;;;;65.37;25.63;;;10.10;99.90;;;;;;5060506;28;20202;-42
2021/12/15 07:07:19;;;;;;;60.60;25.90;;;10.20;99.90;;;;;;5070216;28;20210;-40
2021/12/15 07:09:46;;;;;;;58.27;24.70;;;10.20;99.90;;;;;;5051339;28;20228;-42
2021/12/15 07:12:12;;;;;;;64.13;26.10;;;10.20;99.90;;;;;;5068547;28;20301;-42
2021/12/15 07:14:39;;;;;;;58.07;25.60;;;10.20;99.90;;;;;;5065208;28;20201;-42
2021/12/15 07:17:14;;;;;;;57.67;25.40;;;10.20;99.90;;;;;;5062571;28;20195;-40
2021/12/15 07:20:04;;;;;;;56.97;22.00;;;10.20;99.90;;;;;;5062026;28;20300;-41
2021/12/15 07:22:36;;;;;;;49.03;23.53;;;10.20;99.90;;;;;;5056801;28;22259;-40
2021/12/15 07:25:06;;;;;;;64.60;25.27;;;10.20;99.90;;;;;;5048354;28;20206;-42
2021/12/15 07:27:32;;;;;;;54.50;24.20;;;10.20;99.90;;;;;;5053821;28;21019;-39
2021/12/15 07:30:00;;;;;;;57.03;24.57;;;10.20;99.90;;;;;;5065891;28;20745;-47
2021/12/15 07:32:28;;;;;;;50.13;24.13;;;10.20;99.90;;;;;;5063071;28;20924;-45
2021/12/15 07:34:54;;;;;;;51.73;23.73;;;10.30;99.90;;;;;;5061275;28;20206;-41
2021/12/15 07:37:21;;;;;;;56.70;25.73;;;10.20;99.90;;;;;;5066190;28;20190;-42
2021/12/15 07:39:57;;;;;;;52.00;25.17;;;10.30;99.90;;;;;;5048737;28;20225;-40
2021/12/15 07:42:31;;;;;;;56.47;23.23;;;10.30;99.90;;;;;;5045372;28;20331;-41
2021/12/15 07:44:59;;;;;;;59.60;24.60;;;10.30;99.90;;;;;;5064936;28;20209;-41
2021/12/15 07:47:27;;;;;;;55.93;24.20;;;10.30;99.90;;;;;;5055891;28;20206;-42
2021/12/15 07:49:54;;;;;;;57.47;25.47;;;10.30;99.90;;;;;;5062670;28;20219;-41
2021/12/15 07:52:21;;;;;;;50.90;23.57;;;10.30;99.90;;;;;;5068321;28;20201;-42
2021/12/15 07:54:47;;;;;;;47.87;23.53;;;10.30;99.90;;;;;;5063145;28;20198;-40
2021/12/15 07:57:18;;;;;;;45.80;23.53;;;10.30;99.90;;;;;;5061929;28;20195;-41
2021/12/15 07:59:45;;;;;;;53.37;22.00;;;10.30;99.90;;;;;;5066060;28;20222;-42
2021/12/15 08:02:12;;;;;;;52.43;22.63;;;10.30;99.90;;;;;;5058508;28;20206;-41
2021/12/15 08:04:40;;;;;;;44.50;21.93;;;10.30;99.90;;;;;;5056181;28;20206;-41
2021/12/15 08:07:07;;;;;;;46.60;22.43;;;10.30;99.90;;;;;;5053181;28;20198;-44
2021/12/15 08:09:34;;;;;;;45.83;22.47;;;10.30;99.90;;;;;;5062499;28;20361;-41
2021/12/15 08:12:01;;;;;;;49.50;22.83;;;10.30;99.90;;;;;;5064753;28;20687;-44
2021/12/15 08:14:27;;;;;;;51.93;24.53;;;10.40;99.90;;;;;;5057896;28;20203;-42
2021/12/15 08:16:54;;;;;;;42.27;22.17;;;10.40;99.90;;;;;;5070511;28;20647;-42
2021/12/15 08:19:21;;;;;;;46.53;22.43;;;10.30;99.90;;;;;;5065610;28;20229;-41
2021/12/15 08:21:49;;;;;;;44.17;21.30;;;10.30;99.90;;;;;;5067877;28;20559;-42
2021/12/15 08:24:16;;;;;;;40.93;20.97;;;10.30;99.90;;;;;;5063546;28;20293;-43
2021/12/15 08:26:43;;;;;;;40.73;20.20;;;10.40;99.90;;;;;;5062530;28;20205;-42
2021/12/15 08:29:10;;;;;;;43.97;21.73;;;10.40;99.90;;;;;;5050670;28;20922;-42
2021/12/15 08:31:36;;;;;;;38.07;21.23;;;10.40;99.90;;;;;;5065847;28;20213;-41
2021/12/15 08:34:04;;;;;;;38.33;21.27;;;10.40;99.90;;;;;;5057668;28;20620;-43
2021/12/15 08:36:30;;;;;;;40.47;21.67;;;10.40;99.90;;;;;;5069152;28;20201;-42
2021/12/15 08:38:58;;;;;;;34.43;19.03;;;10.40;99.90;;;;;;5063233;28;20194;-42
2021/12/15 08:41:28;;;;;;;35.40;18.03;;;10.40;99.90;;;;;;5072560;28;20605;-43
2021/12/15 08:43:55;;;;;;;40.63;20.53;;;10.40;99.90;;;;;;5055431;28;20221;-46
2021/12/15 08:46:25;;;;;;;38.03;19.43;;;10.40;99.90;;;;;;5073469;28;20233;-44
2021/12/15 08:48:53;;;;;;;37.60;20.70;;;10.40;99.90;;;;;;5063428;28;20225;-44
2021/12/15 08:51:25;;;;;;;38.53;20.47;;;10.40;99.90;;;;;;5062467;28;20222;-43
2021/12/15 08:53:53;;;;;;;38.50;20.93;;;10.40;99.90;;;;;;5067899;28;20215;-43
2021/12/15 08:56:21;;;;;;;41.57;19.63;;;10.50;99.90;;;;;;5065590;28;20214;-42
2021/12/15 08:58:48;;;;;;;43.90;21.67;;;10.50;99.90;;;;;;5061092;28;20205;-45
2021/12/15 09:01:15;;;;;;;34.33;19.67;;;10.50;99.90;;;;;;5060577;28;20216;-43
2021/12/15 09:03:43;;;;;;;40.93;20.63;;;10.50;99.90;;;;;;5065520;28;20193;-45
2021/12/15 09:06:12;;;;;;;38.83;20.47;;;10.50;99.90;;;;;;5052199;28;20202;-46
2021/12/15 09:08:40;;;;;;;38.37;19.90;;;10.50;99.90;;;;;;5063998;28;20222;-43
2021/12/15 09:11:09;;;;;;;37.13;19.33;;;10.50;99.90;;;;;;5071200;28;20221;-44
2021/12/15 09:13:38;;;;;;;39.33;20.23;;;10.50;99.90;;;;;;5067560;28;20209;-44
2021/12/15 09:16:07;;;;;;;40.17;21.03;;;10.50;99.90;;;;;;5049137;28;20213;-48
2021/12/15 09:18:35;;;;;;;39.23;18.83;;;10.50;99.90;;;;;;5068342;28;20198;-43
2021/12/15 09:21:01;;;;;;;40.60;20.37;;;10.50;99.90;;;;;;5059306;28;20225;-43
2021/12/15 09:23:28;;;;;;;35.70;19.00;;;10.50;99.90;;;;;;5073973;28;20209;-43
2021/12/15 09:25:55;;;;;;;37.63;19.77;;;10.50;99.90;;;;;;5070231;28;20209;-43
2021/12/15 09:28:22;;;;;;;36.70;20.50;;;10.50;99.90;;;;;;5069670;28;20355;-43
2021/12/15 09:30:50;;;;;;;39.27;20.03;;;10.50;99.90;;;;;;5064908;28;20218;-45
2021/12/15 09:33:22;;;;;;;33.80;19.13;;;10.60;99.90;;;;;;5057500;28;20213;-45
2021/12/15 09:35:50;;;;;;;37.00;20.07;;;10.60;99.90;;;;;;5061881;28;20201;-44
2021/12/15 09:38:19;;;;;;;37.77;20.67;;;10.60;99.90;;;;;;5059292;28;20203;-44
2021/12/15 09:40:47;;;;;;;36.93;19.77;;;10.60;99.90;;;;;;5067986;28;20303;-44
2021/12/15 09:43:14;;;;;;;47.37;21.33;;;10.60;99.90;;;;;;5064947;28;20207;-43
2021/12/15 09:45:49;;;;;;;33.10;19.73;;;10.60;99.90;;;;;;5052916;28;20238;-45
2021/12/15 09:57:07;;;;;;;36.43;19.67;;;10.60;99.90;;;;;;5070819;28;20197;-45
2021/12/15 10:02:33;;;;;;;33.63;19.00;;;10.70;99.90;;;;;;5080286;28;20197;-43
2021/12/15 10:05:14;;;;;;;35.87;19.00;;;10.60;99.90;;;;;;5069539;28;20230;-44
2021/12/15 10:10:47;;;;;;;40.97;21.33;;;10.60;99.90;;;;;;5067607;28;20938;-47
2021/12/15 10:18:53;;;;;;;38.07;20.20;;;10.70;99.90;;;;;;5053886;28;20249;-43
2021/12/15 10:21:26;;;;;;;39.53;19.53;;;10.70;99.90;;;;;;5068091;28;20203;-43
2021/12/15 10:23:54;;;;;;;36.70;19.37;;;10.70;99.90;;;;;;5059298;28;20236;-42
2021/12/15 10:26:23;;;;;;;38.87;21.07;;;10.70;99.90;;;;;;5062979;28;20194;-44
2021/12/15 10:28:52;;;;;;;40.23;20.93;;;10.70;99.90;;;;;;5077176;28;20225;-46
2021/12/15 10:31:21;;;;;;;35.23;19.80;;;10.70;99.90;;;;;;5059154;28;20208;-46
2021/12/15 10:33:50;;;;;;;40.10;20.50;;;10.70;99.90;;;;;;5074223;28;20206;-41
2021/12/15 10:36:20;;;;;;;45.30;22.83;;;10.70;99.90;;;;;;5058451;28;20190;-46
2021/12/15 10:38:52;;;;;;;43.87;22.83;;;10.70;99.90;;;;;;5070109;28;20558;-42
2021/12/15 10:41:20;;;;;;;37.17;20.30;;;10.70;99.90;;;;;;5069100;28;20309;-42
2021/12/15 10:43:50;;;;;;;38.57;20.50;;;10.70;99.90;;;;;;5069838;28;20200;-43
2021/12/15 10:46:20;;;;;;;34.50;20.00;;;10.70;99.90;;;;;;5068518;28;20709;-43
2021/12/15 10:48:51;;;;;;;37.87;20.67;;;10.70;99.90;;;;;;5057909;28;20221;-42
2021/12/15 10:51:23;;;;;;;37.43;21.40;;;10.70;99.90;;;;;;5062576;28;20225;-42
2021/12/15 10:53:55;;;;;;;40.60;21.90;;;10.70;99.90;;;;;;5067605;28;20203;-42
2021/12/15 10:56:24;;;;;;;38.57;20.63;;;10.70;99.90;;;;;;5066158;28;20209;-42
2021/12/15 10:58:53;;;;;;;43.70;22.93;;;10.70;99.90;;;;;;5072632;28;20199;-41
2021/12/15 11:01:52;;;;;;;42.97;21.57;;;10.80;99.90;;;;;;5067550;28;20210;-42
2021/12/15 11:04:26;;;;;;;39.73;21.83;;;10.80;99.90;;;;;;5005537;28;20218;-47
2021/12/15 11:07:07;;;;;;;40.57;21.93;;;10.80;99.90;;;;;;5077519;28;20213;-42
2021/12/15 11:09:39;;;;;;;42.83;23.20;;;10.80;99.90;;;;;;5054259;28;20225;-44
2021/12/15 11:12:09;;;;;;;41.80;21.47;;;10.80;99.90;;;;;;5064803;28;20208;-42
2021/12/15 11:14:38;;;;;;;40.10;22.93;;;10.80;99.90;;;;;;5066148;28;20201;-42
2021/12/15 11:17:09;;;;;;;39.70;21.40;;;10.80;99.90;;;;;;5070959;28;20218;-42
2021/12/15 11:19:42;;;;;;;42.83;22.40;;;10.80;99.90;;;;;;5066175;28;20214;-43
2021/12/15 11:22:32;;;;;;;37.80;20.83;;;10.80;99.90;;;;;;5064619;28;20206;-49
2021/12/15 11:25:01;;;;;;;40.00;22.40;;;10.80;99.90;;;;;;5072342;28;20198;-41
2021/12/15 11:27:28;;;;;;;36.27;20.17;;;10.80;99.90;;;;;;5059894;28;20203;-48
2021/12/15 11:29:55;;;;;;;46.77;22.70;;;10.80;99.90;;;;;;5066701;28;20209;-45
2021/12/15 11:32:39;;;;;;;34.93;18.33;;;10.80;99.90;;;;;;5064042;28;20202;-42
2021/12/15 11:35:09;;;;;;;42.70;22.67;;;10.80;99.90;;;;;;5065919;28;20203;-46
2021/12/15 11:37:47;;;;;;;40.30;21.57;;;10.80;99.90;;;;;;5064703;28;20206;-45
2021/12/15 11:40:17;;;;;;;39.80;22.20;;;10.80;99.90;;;;;;5066155;28;20287;-42
2021/12/15 11:42:45;;;;;;;38.20;20.73;;;10.90;99.90;;;;;;5069807;28;20819;-43
2021/12/15 11:45:14;;;;;;;43.93;23.57;;;10.90;99.90;;;;;;5067283;28;20611;-44
2021/12/15 11:47:41;;;;;;;34.73;20.33;;;10.90;99.90;;;;;;5057271;28;20210;-43
2021/12/15 11:50:13;;;;;;;43.47;21.40;;;10.90;99.90;;;;;;5067605;28;20590;-43
2021/12/15 11:52:42;;;;;;;41.47;21.90;;;10.90;99.90;;;;;;5056478;28;20288;-43
2021/12/15 11:55:24;;;;;;;38.43;20.00;;;10.90;99.90;;;;;;5070125;28;20210;-45
2021/12/15 11:57:51;;;;;;;39.73;23.23;;;10.90;99.90;;;;;;5061894;28;20201;-45
2021/12/15 12:00:20;;;;;;;36.30;21.77;;;10.90;99.90;;;;;;5071916;28;20215;-43
2021/12/15 12:02:51;;;;;;;37.40;21.33;;;10.90;99.90;;;;;;5057359;28;20190;-42
2021/12/15 12:05:21;;;;;;;41.83;20.97;;;10.90;99.90;;;;;;5065963;28;20285;-44
2021/12/15 12:07:52;;;;;;;37.87;21.67;;;10.90;99.90;;;;;;5069154;28;20201;-44
2021/12/15 12:10:25;;;;;;;38.93;21.90;;;10.90;99.90;;;;;;5068626;28;20230;-44
2021/12/15 12:13:02;;;;;;;42.23;22.30;;;10.90;99.90;;;;;;5054734;28;22523;-45
2021/12/15 12:15:30;;;;;;;41.00;22.17;;;10.90;99.90;;;;;;5064450;28;20202;-43
2021/12/15 12:18:00;;;;;;;41.40;22.47;;;10.90;99.90;;;;;;5058888;28;20202;-46
2021/12/15 12:20:29;;;;;;;41.13;23.00;;;10.90;99.90;;;;;;5063558;28;20225;-43
2021/12/15 12:22:58;;;;;;;41.30;23.83;;;10.90;99.90;;;;;;5072241;28;20822;-44
2021/12/15 12:25:29;;;;;;;41.70;21.90;;;10.90;99.90;;;;;;5062664;28;20575;-44
2021/12/15 12:27:57;;;;;;;36.67;20.33;;;10.90;99.90;;;;;;5064430;28;20207;-41
2021/12/15 12:30:27;;;;;;;38.73;22.13;;;10.90;99.90;;;;;;5062400;28;20222;-42
2021/12/15 12:32:54;;;;;;;40.30;22.00;;;10.90;99.90;;;;;;5059021;28;20214;-42
2021/12/15 12:35:25;;;;;;;37.17;21.60;;;10.90;99.90;;;;;;5054783;28;20206;-44
2021/12/15 12:37:54;;;;;;;39.37;21.27;;;10.90;99.90;;;;;;5064436;28;20206;-43
2021/12/15 12:40:24;;;;;;;40.43;22.83;;;10.90;99.90;;;;;;5077450;28;20209;-42
2021/12/15 12:42:53;;;;;;;39.83;22.73;;;10.80;99.90;;;;;;5066580;28;20204;-45
2021/12/15 12:45:30;;;;;;;37.00;20.67;;;10.80;99.90;;;;;;5069566;28;20678;-45
2021/12/15 12:48:17;;;;;;;36.73;20.87;;;10.80;99.90;;;;;;5062133;28;20333;-42
2021/12/15 12:59:28;;;;;;;37.43;20.83;;;10.80;99.90;;;;;;5065814;28;20210;-42
2021/12/15 13:01:55;;;;;;;36.90;22.23;;;10.80;99.90;;;;;;5077233;28;20564;-42
2021/12/15 13:04:22;;;;;;;39.17;21.50;;;10.80;99.90;;;;;;5065648;28;20900;-43
2021/12/15 13:06:49;;;;;;;34.77;21.37;;;10.80;99.90;;;;;;5069950;28;20205;-42
2021/12/15 13:09:19;;;;;;;35.10;20.03;;;10.80;99.90;;;;;;5064019;28;20211;-43
2021/12/15 13:11:50;;;;;;;32.23;20.80;;;10.80;99.90;;;;;;5064736;28;20606;-45
2021/12/15 13:14:21;;;;;;;33.40;19.47;;;10.80;99.90;;;;;;5070229;28;20918;-43
2021/12/15 13:16:52;;;;;;;33.87;19.40;;;10.80;99.90;;;;;;5072113;28;20666;-44
2021/12/15 13:19:22;;;;;;;32.03;19.40;;;10.80;99.90;;;;;;5063172;28;20268;-44
2021/12/15 13:22:00;;;;;;;31.47;18.77;;;10.70;99.90;;;;;;5062910;28;20198;-44
2021/12/15 13:30:38;;;;;;;30.73;17.53;;;10.70;99.90;;;;;;5065908;28;20222;-43
2021/12/15 13:33:12;;;;;;;28.53;16.17;;;10.70;99.90;;;;;;5067981;28;20671;-43
2021/12/15 13:35:43;;;;;;;25.73;16.10;;;10.70;99.90;;;;;;5077237;28;20635;-43
2021/12/15 13:38:11;;;;;;;26.83;15.27;;;10.70;99.90;;;;;;5054459;28;20225;-43
2021/12/15 13:40:55;;;;;;;27.10;16.23;;;10.70;99.90;;;;;;5073222;28;20222;-43
2021/12/15 13:43:45;;;;;;;24.03;16.43;;;10.70;99.90;;;;;;5069758;28;20197;-43
2021/12/15 13:46:34;;;;;;;30.20;16.20;;;10.70;99.90;;;;;;5065274;28;20205;-43
2021/12/15 13:49:10;;;;;;;27.17;17.00;;;10.70;99.90;;;;;;5069919;28;20214;-42
2021/12/15 13:52:01;;;;;;;28.10;16.27;;;10.70;99.90;;;;;;5075341;28;20268;-42